Bischofshofen, Autriche

00:50 CEST le 26 octobre 2014 (GMT +0200)
Muehlach am Hochkoenig | Change Station
CLOSE
Current Station
Stations météorologiques personnelles
Location: Mühlbach Am Hochkönig, SALZBURG
Altitude: 2785 ft
Stations météo à proximité

Alt. 2785 ft 47.38 °N, 13.13 °E | Updated 12 seconds ago

Mostly Cloudy
Nuageux
39.6 ° F
Paraît 40 ° F
N
0.0
Vent Variable Vent de OSO
Gusts 0.0 mph

Aujourd'hui
Haut(e) -- | Bas -- ° F
--% Risque de précip.
Hier
Haut(e) -- | Bas -- ° F
Precip. -- pouce
6:41 AM 5:00 PM
Lune montante, 4% visible
Pression 30.27 pouce
Visibilité 4.3 Miles terrestres
Nuages Peu 300 ft
Nuageux 4600 ft
Refroidissement éolien 40 ° F
Point de rosée 36 ° F
Humidité 87%
Précipitations 0.00 pouce
Profondeur de la couche neigeuse Non disponible.
UV 0.0 sur 12
Pollen Non disponible.
Qualité de l'air Non disponible.
Flu Activity Non disponible.
METAR LOWS 252220Z AUTO VRB01KT 7000 FEW003 BKN046 08/07 Q1025

More Conditions Fewer Conditions

Pression 30.27 pouce
Visibilité 4.3 Miles terrestres
Nuages Peu 300 ft
Nuageux 4600 ft
Refroidissement éolien 40 ° F
Point de rosée 36 ° F
Humidité 87%
Précipitations 0.00 pouce
Profondeur de la couche neigeuse Non disponible.
UV 0.0 sur 12
Pollen Non disponible.
Qualité de l'air Non disponible.
Flu Activity Non disponible.
METAR LOWS 252220Z AUTO VRB01KT 7000 FEW003 BKN046 08/07 Q1025

More Conditions Fewer Conditions

10-Day Weather Forecast

Almanac

Astronomie

Oct. 26, 2014 Lever Coucher
Temps réel 06:41 CET 17:00 CET
Crépuscule civil 06:09 CET 17:31 CET
Crépuscule nautique 05:33 CET 18:07 CET
Crépuscule astronomique 04:58 CET 18:43 CET
Lune 10:09 CET (10/26) 19:49 CET (10/26)
Durée de lumière visible 11h 21m
Longueur du jour
10h 18m
Tomorrow will be 0m 0s shorter.
Lune montante, 4% of the Moon is Illuminated
Oct 25
Lune montante
Oct 30
Premier quartier
Nov 6
Pleine lune
Nov 14
Dernier quartier
Nov 22
Nouveau

Les extrêmes de température d’hier

Country Highs Country Lows

Community

WunderPhotos

Upload Photos

1,765,016 Photos téléchargées !

Nearby

Qualité de l'air

Not available.

Épaisseur de neige

Not available.

Activité sismique

Ville Distance Mag. Time & Date
No recent earthquake activity has been reported nearby.
Minimum magnitude displayed is 2.5.

Températures des eaux côtières

Lieu Température
Aucun rapport de station

Stations météo à proximité